createdAt,value
2017-11-09T00:00:22.729Z,6.40
2017-11-09T00:02:51.277Z,6.40
2017-11-09T00:05:25.164Z,6.30
2017-11-09T00:07:54.599Z,6.30
2017-11-09T00:10:23.854Z,6.10
2017-11-09T00:12:52.383Z,6.20
2017-11-09T00:15:20.908Z,6.20
2017-11-09T00:17:49.631Z,6.20
2017-11-09T00:20:18.142Z,6.20
2017-11-09T00:22:46.637Z,6.10
2017-11-09T00:25:15.173Z,6.10
2017-11-09T00:27:44.431Z,6.20
2017-11-09T00:30:13.659Z,6.00
2017-11-09T00:32:42.152Z,6.00
2017-11-09T00:35:10.685Z,5.80
2017-11-09T00:37:39.170Z,6.00
2017-11-09T00:40:07.632Z,5.90
2017-11-09T00:42:36.133Z,5.90
2017-11-09T00:45:04.267Z,5.90
2017-11-09T00:47:33.497Z,5.90
2017-11-09T00:50:02.219Z,5.90
2017-11-09T00:52:31.487Z,5.90
2017-11-09T00:55:00.200Z,5.90
2017-11-09T00:57:46.823Z,5.90
2017-11-09T01:00:15.315Z,5.90
2017-11-09T01:02:44.367Z,6.00
2017-11-09T01:05:12.878Z,6.10
2017-11-09T01:07:41.366Z,6.10
2017-11-09T01:10:09.883Z,6.00
2017-11-09T01:12:38.408Z,6.00
2017-11-09T01:15:06.913Z,6.00
2017-11-09T01:17:35.380Z,6.10
2017-11-09T01:20:04.326Z,6.10
2017-11-09T01:22:32.812Z,6.10
2017-11-09T01:25:01.283Z,6.00
2017-11-09T01:27:29.801Z,6.00
2017-11-09T01:29:58.283Z,6.10
2017-11-09T01:32:26.754Z,6.10
2017-11-09T01:34:56.026Z,6.00
2017-11-09T01:37:24.507Z,5.90
2017-11-09T01:39:52.615Z,6.00
2017-11-09T01:42:21.956Z,6.00
2017-11-09T01:44:50.434Z,6.00
2017-11-09T01:47:18.925Z,6.00
2017-11-09T01:49:48.309Z,5.90
2017-11-09T01:52:16.789Z,5.90
2017-11-09T01:54:45.312Z,5.90
2017-11-09T01:57:13.826Z,6.00
2017-11-09T01:59:42.334Z,6.00
2017-11-09T02:02:10.790Z,5.90
2017-11-09T02:04:38.994Z,5.90
2017-11-09T02:07:07.489Z,6.00
2017-11-09T02:09:35.979Z,5.80
2017-11-09T02:12:04.518Z,5.90
2017-11-09T02:14:32.988Z,6.00
2017-11-09T02:17:01.469Z,5.80
2017-11-09T02:19:29.981Z,5.90
2017-11-09T02:22:01.638Z,6.00
2017-11-09T02:24:29.745Z,5.90
2017-11-09T02:26:58.482Z,6.00
2017-11-09T02:29:26.650Z,6.00
2017-11-09T02:31:54.459Z,6.00
2017-11-09T02:34:22.231Z,6.20
2017-11-09T02:36:50.727Z,6.10
2017-11-09T02:39:18.919Z,6.10
2017-11-09T02:41:47.051Z,6.00
2017-11-09T02:44:15.512Z,6.00
2017-11-09T02:46:43.661Z,5.90
2017-11-09T02:49:12.144Z,6.00
2017-11-09T02:51:40.511Z,6.00
2017-11-09T02:54:08.348Z,6.10
2017-11-09T02:56:36.155Z,6.20
2017-11-09T02:59:04.500Z,6.10
2017-11-09T03:01:32.979Z,6.10
2017-11-09T03:04:01.489Z,6.20
2017-11-09T03:06:29.991Z,6.10
2017-11-09T03:08:58.484Z,6.00
2017-11-09T03:11:26.613Z,6.00
2017-11-09T03:13:55.099Z,6.00
2017-11-09T03:16:23.637Z,5.90
2017-11-09T03:18:52.125Z,6.00
2017-11-09T03:21:20.588Z,6.00
2017-11-09T03:23:49.104Z,6.00
2017-11-09T03:26:17.593Z,6.00
2017-11-09T03:28:46.823Z,6.00
2017-11-09T03:31:16.154Z,6.00
2017-11-09T03:33:44.619Z,6.00
2017-11-09T03:36:13.561Z,6.00
2017-11-09T03:38:42.025Z,5.90
2017-11-09T03:41:10.467Z,5.90
2017-11-09T03:43:38.918Z,5.70
2017-11-09T03:46:06.714Z,5.70
2017-11-09T03:48:35.180Z,5.80
2017-11-09T03:51:03.330Z,5.70
2017-11-09T03:53:31.820Z,5.80
2017-11-09T03:56:00.334Z,5.80
2017-11-09T03:58:29.575Z,5.60
2017-11-09T04:00:58.104Z,5.80
2017-11-09T04:03:26.593Z,5.70
2017-11-09T04:05:55.135Z,5.80
2017-11-09T04:08:24.407Z,5.80
2017-11-09T04:10:52.944Z,5.80
2017-11-09T04:13:22.186Z,5.80
2017-11-09T04:15:50.680Z,5.80
2017-11-09T04:18:19.158Z,5.90
2017-11-09T04:20:48.412Z,5.90
2017-11-09T04:23:16.949Z,5.90
2017-11-09T04:25:45.461Z,5.90
2017-11-09T04:28:13.930Z,5.80
2017-11-09T04:30:42.470Z,5.80
2017-11-09T04:33:10.977Z,5.80
2017-11-09T04:35:39.487Z,5.80
2017-11-09T04:38:08.015Z,5.80
2017-11-09T04:40:36.483Z,5.80
2017-11-09T04:43:04.965Z,5.80
2017-11-09T04:45:33.407Z,5.90
2017-11-09T04:48:01.894Z,5.80
2017-11-09T04:50:30.396Z,5.90
2017-11-09T04:52:59.673Z,5.90
2017-11-09T04:55:27.974Z,5.90
2017-11-09T04:57:56.434Z,5.80
2017-11-09T05:00:24.947Z,5.90
2017-11-09T05:02:53.395Z,5.90
2017-11-09T05:05:22.672Z,5.80
2017-11-09T05:07:51.176Z,5.80
2017-11-09T05:10:19.663Z,5.80
2017-11-09T05:12:48.127Z,5.80
2017-11-09T05:15:16.615Z,5.80
2017-11-09T05:17:45.144Z,5.90
2017-11-09T05:20:14.381Z,5.80
2017-11-09T05:22:42.905Z,5.70
2017-11-09T05:25:11.406Z,5.80
2017-11-09T05:27:39.897Z,5.80
2017-11-09T05:30:07.870Z,5.80
2017-11-09T05:32:36.380Z,5.80
2017-11-09T05:35:04.900Z,5.70
2017-11-09T05:37:33.148Z,5.80
2017-11-09T05:40:01.682Z,5.70
2017-11-09T05:42:30.185Z,5.80
2017-11-09T05:44:58.682Z,5.90
2017-11-09T05:47:27.175Z,5.80
2017-11-09T05:49:55.744Z,5.80
2017-11-09T05:52:24.335Z,5.80
2017-11-09T05:54:52.867Z,5.90
2017-11-09T05:57:21.449Z,5.90
2017-11-09T05:59:50.041Z,5.90
2017-11-09T06:02:18.565Z,5.90
2017-11-09T06:04:47.066Z,5.90
2017-11-09T06:07:15.607Z,6.00
2017-11-09T06:09:44.119Z,5.90
2017-11-09T06:12:12.602Z,5.80
2017-11-09T06:14:40.767Z,5.80
2017-11-09T06:17:10.014Z,5.80
2017-11-09T06:19:38.505Z,5.80
2017-11-09T06:22:06.974Z,5.80
2017-11-09T06:24:35.474Z,5.60
2017-11-09T06:27:03.996Z,5.80
2017-11-09T06:29:32.541Z,5.70
2017-11-09T06:32:01.024Z,5.70
2017-11-09T06:34:29.494Z,5.70
2017-11-09T06:36:58.844Z,5.90
2017-11-09T06:39:27.330Z,5.90
2017-11-09T06:41:55.814Z,5.80
2017-11-09T06:44:24.366Z,5.90
2017-11-09T06:46:52.839Z,5.80
2017-11-09T06:49:22.088Z,5.70
2017-11-09T06:51:50.689Z,5.60
2017-11-09T06:54:19.430Z,5.70
2017-11-09T06:56:47.941Z,5.60
2017-11-09T06:59:16.471Z,5.70
2017-11-09T07:01:44.327Z,5.70
2017-11-09T07:04:13.063Z,5.80
2017-11-09T07:06:41.617Z,5.70
2017-11-09T07:09:10.201Z,5.70
2017-11-09T07:11:38.876Z,5.90
2017-11-09T07:14:07.484Z,5.90
2017-11-09T07:16:35.954Z,5.90
2017-11-09T07:19:04.438Z,5.90
2017-11-09T07:21:32.946Z,6.10
2017-11-09T07:24:01.426Z,6.20
2017-11-09T07:26:29.939Z,6.10
2017-11-09T07:28:58.478Z,5.90
2017-11-09T07:31:26.972Z,6.00
2017-11-09T07:33:55.128Z,6.10
2017-11-09T07:36:23.627Z,6.00
2017-11-09T07:38:52.185Z,6.00
2017-11-09T07:41:20.744Z,6.10
2017-11-09T07:43:49.271Z,6.30
2017-11-09T07:46:17.782Z,6.40
2017-11-09T07:48:46.324Z,6.40
2017-11-09T07:51:14.844Z,6.50
2017-11-09T07:53:43.607Z,6.40
2017-11-09T07:56:12.247Z,6.20
2017-11-09T07:58:40.803Z,6.00
2017-11-09T08:01:10.058Z,6.10
2017-11-09T08:03:38.588Z,6.10
2017-11-09T08:06:07.159Z,6.10
2017-11-09T08:08:35.682Z,6.00
2017-11-09T08:11:03.904Z,6.10
2017-11-09T08:13:32.434Z,6.00
2017-11-09T08:16:00.942Z,6.10
2017-11-09T08:18:30.683Z,6.10
2017-11-09T08:20:59.834Z,6.00
2017-11-09T08:23:28.514Z,6.00
2017-11-09T08:25:57.766Z,5.80
2017-11-09T08:28:27.812Z,5.90
2017-11-09T08:30:56.416Z,5.90
2017-11-09T08:33:28.258Z,5.80
2017-11-09T08:35:56.556Z,5.80
2017-11-09T08:38:25.099Z,5.80
2017-11-09T08:40:53.638Z,5.70
2017-11-09T08:43:22.208Z,5.70
2017-11-09T08:45:50.717Z,5.80
2017-11-09T08:48:19.313Z,5.70
2017-11-09T08:50:47.839Z,5.80
2017-11-09T08:53:16.491Z,5.90
2017-11-09T08:55:45.142Z,6.00
2017-11-09T08:58:13.765Z,5.90
2017-11-09T09:00:42.284Z,6.00
2017-11-09T09:03:11.679Z,6.10
2017-11-09T09:05:40.177Z,6.10
2017-11-09T09:08:08.728Z,6.00
2017-11-09T09:10:37.086Z,6.00
2017-11-09T09:13:06.118Z,6.10
2017-11-09T09:15:34.632Z,6.10
2017-11-09T09:18:02.957Z,6.20
2017-11-09T09:20:32.034Z,6.30
2017-11-09T09:23:01.839Z,6.20
2017-11-09T09:25:32.799Z,6.20
2017-11-09T09:28:01.691Z,6.10
2017-11-09T09:30:30.037Z,6.10
2017-11-09T09:33:09.523Z,6.20
2017-11-09T09:35:42.715Z,6.20
2017-11-09T09:38:17.416Z,6.40
2017-11-09T09:40:48.152Z,6.30
2017-11-09T09:43:16.452Z,6.20
2017-11-09T09:45:44.839Z,6.30
2017-11-09T09:48:13.233Z,6.50
2017-11-09T09:50:41.760Z,6.50
2017-11-09T09:53:10.300Z,6.50
2017-11-09T09:55:38.789Z,6.70
2017-11-09T09:58:07.359Z,6.70
2017-11-09T10:00:35.690Z,6.80
2017-11-09T10:03:04.162Z,6.90
2017-11-09T10:05:32.685Z,6.70
2017-11-09T10:08:01.418Z,6.90
2017-11-09T10:10:30.033Z,6.80
2017-11-09T10:12:58.781Z,6.90
2017-11-09T10:15:27.332Z,6.90
2017-11-09T10:17:56.621Z,6.90
2017-11-09T10:20:25.121Z,6.80
2017-11-09T10:22:53.885Z,6.80
2017-11-09T10:25:22.403Z,6.90
2017-11-09T10:27:51.006Z,6.80
2017-11-09T10:30:19.531Z,6.90
2017-11-09T10:32:48.538Z,7.00
2017-11-09T10:35:17.255Z,7.00
2017-11-09T10:37:45.738Z,7.10
2017-11-09T10:40:14.211Z,7.00
2017-11-09T10:42:42.707Z,7.10
2017-11-09T10:45:10.875Z,7.20
2017-11-09T10:47:39.350Z,7.30
2017-11-09T10:50:07.585Z,7.30
2017-11-09T10:52:36.054Z,7.30
2017-11-09T10:55:04.506Z,7.20
2017-11-09T10:57:32.998Z,7.30
2017-11-09T11:00:03.701Z,7.20
2017-11-09T11:02:33.025Z,7.30
2017-11-09T11:05:02.308Z,7.10
2017-11-09T11:07:30.785Z,7.10
2017-11-09T11:09:59.348Z,7.10
2017-11-09T11:12:30.136Z,7.30
2017-11-09T11:14:58.711Z,7.30
2017-11-09T11:17:27.218Z,7.50
2017-11-09T11:19:55.769Z,7.40
2017-11-09T11:22:24.252Z,7.20
2017-11-09T11:24:53.121Z,7.00
2017-11-09T11:29:54.364Z,7.30
2017-11-09T11:32:24.506Z,7.50
2017-11-09T11:34:53.031Z,7.60
2017-11-09T11:37:21.559Z,7.50
2017-11-09T11:39:50.180Z,7.20
2017-11-09T11:42:18.676Z,7.30
2017-11-09T11:44:47.499Z,7.40
2017-11-09T11:47:16.036Z,7.40
2017-11-09T11:49:44.534Z,7.60
2017-11-09T11:52:13.183Z,7.60
2017-11-09T11:54:41.666Z,7.60
2017-11-09T11:57:10.168Z,7.60
2017-11-09T11:59:38.625Z,7.60
2017-11-09T12:02:08.660Z,7.50
2017-11-09T12:04:38.351Z,7.80
2017-11-09T12:07:06.953Z,7.80
2017-11-09T12:09:36.788Z,7.90
2017-11-09T12:12:04.965Z,7.90
2017-11-09T12:14:33.421Z,8.20
2017-11-09T12:17:01.897Z,8.30
2017-11-09T12:19:39.434Z,8.30
2017-11-09T12:22:08.058Z,8.50
2017-11-09T12:24:36.574Z,8.70
2017-11-09T12:27:05.084Z,8.70
2017-11-09T12:29:33.589Z,8.70
2017-11-09T12:32:02.180Z,8.70
2017-11-09T12:34:30.728Z,8.60
2017-11-09T12:36:59.361Z,8.50
2017-11-09T12:39:28.793Z,8.50
2017-11-09T12:41:57.305Z,8.40
2017-11-09T12:44:25.769Z,8.10
2017-11-09T12:46:54.084Z,8.20
2017-11-09T12:49:22.582Z,8.30
2017-11-09T12:51:50.726Z,8.40
2017-11-09T12:54:19.082Z,8.60
2017-11-09T12:56:49.427Z,8.30
2017-11-09T13:01:47.307Z,8.30
2017-11-09T13:04:15.915Z,8.20
2017-11-09T13:06:44.203Z,8.10
2017-11-09T13:09:12.726Z,8.10
2017-11-09T13:11:41.009Z,8.00
2017-11-09T13:14:09.337Z,7.80
2017-11-09T13:16:37.638Z,7.70
2017-11-09T13:19:06.846Z,8.00
2017-11-09T13:21:35.311Z,8.00
2017-11-09T13:24:03.273Z,8.40
2017-11-09T13:26:31.806Z,8.50
2017-11-09T13:29:01.049Z,8.40
2017-11-09T13:31:29.341Z,8.40
2017-11-09T13:33:57.851Z,8.30
2017-11-09T13:36:26.332Z,8.30
2017-11-09T13:38:54.766Z,8.30
2017-11-09T13:41:23.312Z,7.90
2017-11-09T13:43:51.757Z,7.80
2017-11-09T13:46:20.192Z,7.70
2017-11-09T13:48:48.724Z,7.50
2017-11-09T13:51:17.189Z,7.50
2017-11-09T13:53:45.634Z,7.60
2017-11-09T13:56:14.141Z,7.70
2017-11-09T13:58:42.620Z,7.50
2017-11-09T14:01:11.149Z,7.70
2017-11-09T14:03:39.650Z,7.60
2017-11-09T14:06:08.150Z,7.70
2017-11-09T14:08:36.593Z,7.50
2017-11-09T14:11:08.218Z,7.40
2017-11-09T14:13:36.716Z,7.30
2017-11-09T14:16:05.200Z,7.10
2017-11-09T14:18:33.690Z,7.20
2017-11-09T14:21:02.924Z,7.30
2017-11-09T14:23:31.174Z,7.30
2017-11-09T14:25:59.654Z,7.50
2017-11-09T14:28:28.117Z,7.60
2017-11-09T14:30:56.609Z,7.60
2017-11-09T14:33:25.156Z,7.50
2017-11-09T14:35:53.653Z,7.50
2017-11-09T14:38:22.169Z,7.40
2017-11-09T14:40:51.502Z,7.20
2017-11-09T14:43:20.057Z,7.20
2017-11-09T14:45:48.560Z,7.10
2017-11-09T14:48:17.039Z,7.10
2017-11-09T14:50:45.536Z,7.10
2017-11-09T14:53:14.065Z,7.10
2017-11-09T14:55:42.596Z,7.00
2017-11-09T14:58:11.224Z,7.00
2017-11-09T15:00:46.612Z,7.00
2017-11-09T15:03:15.123Z,7.00
2017-11-09T15:05:43.717Z,7.00
2017-11-09T15:08:16.666Z,7.00
2017-11-09T15:10:47.300Z,7.00
2017-11-09T19:18:34.678Z,6.60
2017-11-09T19:21:21.594Z,6.60
2017-11-09T19:23:50.853Z,6.50
2017-11-09T19:26:19.362Z,6.50
2017-11-09T19:28:47.911Z,6.50
2017-11-09T19:31:16.407Z,6.50
2017-11-09T19:33:44.887Z,6.50
2017-11-09T19:36:13.542Z,6.50
2017-11-09T19:38:42.952Z,6.60
2017-11-09T19:41:11.522Z,6.60
2017-11-09T19:43:43.581Z,6.60
2017-11-09T19:46:12.054Z,6.60
2017-11-09T19:48:40.568Z,6.60
2017-11-09T19:51:11.127Z,6.70
2017-11-09T19:53:40.238Z,6.70
2017-11-09T19:56:09.156Z,6.60
2017-11-09T19:58:37.748Z,6.60
2017-11-09T20:01:06.238Z,6.60
2017-11-09T20:03:34.817Z,6.60
2017-11-09T20:06:03.207Z,6.60
2017-11-09T20:08:32.510Z,6.50
2017-11-09T20:11:01.081Z,6.50
2017-11-09T20:13:29.718Z,6.50
2017-11-09T20:15:58.413Z,6.60
2017-11-09T20:18:27.532Z,6.60
2017-11-09T20:20:56.049Z,6.40
2017-11-09T20:23:25.003Z,6.40
2017-11-09T20:25:56.470Z,6.40
2017-11-09T20:28:26.113Z,6.30
2017-11-09T20:30:55.623Z,6.40
2017-11-09T20:33:24.926Z,6.40
2017-11-09T20:36:03.316Z,6.50
2017-11-09T20:38:32.955Z,6.50
2017-11-09T20:41:01.275Z,6.50
2017-11-09T20:43:30.826Z,6.50
2017-11-09T20:45:59.599Z,6.50
2017-11-09T20:48:28.136Z,6.50
2017-11-09T20:50:57.355Z,6.50
2017-11-09T20:53:25.909Z,6.50
2017-11-09T20:55:55.901Z,6.40
2017-11-09T20:58:24.388Z,6.50
2017-11-09T21:00:55.396Z,6.40
2017-11-09T21:03:25.928Z,6.30
2017-11-09T21:05:55.314Z,6.40
2017-11-09T21:08:25.883Z,6.40
2017-11-09T21:13:23.866Z,6.30
2017-11-09T21:15:54.282Z,6.30
2017-11-09T21:18:22.798Z,6.30
2017-11-09T21:20:51.503Z,6.30
2017-11-09T21:23:20.785Z,6.30
2017-11-09T21:25:49.367Z,6.30
2017-11-09T21:28:18.426Z,6.30
2017-11-09T21:30:47.767Z,6.30
2017-11-09T21:33:16.305Z,6.30
2017-11-09T21:35:44.855Z,6.30
2017-11-09T21:38:14.791Z,6.20
2017-11-09T21:40:44.811Z,6.20
2017-11-09T21:43:13.478Z,6.20
2017-11-09T21:45:54.100Z,6.30
2017-11-09T21:48:22.607Z,6.20
2017-11-09T21:50:52.621Z,6.30
2017-11-09T21:53:21.154Z,6.30
2017-11-09T21:55:49.622Z,6.30
2017-11-09T21:58:18.124Z,6.30
2017-11-09T22:00:46.524Z,6.30
2017-11-09T22:03:15.092Z,6.30
2017-11-09T22:05:43.568Z,6.30
2017-11-09T22:08:12.098Z,6.30
2017-11-09T22:13:11.625Z,6.30
2017-11-09T22:15:40.150Z,6.30
2017-11-09T22:18:08.660Z,6.20
2017-11-09T22:20:38.614Z,6.20
2017-11-09T22:25:36.710Z,6.10
2017-11-09T22:28:05.240Z,5.00
2017-11-09T22:30:33.762Z,6.10
2017-11-09T22:33:02.295Z,6.10
2017-11-09T22:35:30.645Z,6.10
2017-11-09T22:37:59.157Z,6.10
2017-11-09T22:40:27.658Z,6.10
2017-11-09T22:42:55.944Z,6.10
2017-11-09T22:45:24.453Z,6.10
2017-11-09T22:47:52.975Z,6.00
2017-11-09T22:50:21.497Z,6.00
2017-11-09T22:52:49.966Z,6.00
2017-11-09T22:55:19.278Z,6.00
2017-11-09T22:57:48.991Z,6.00
2017-11-09T23:00:18.937Z,6.00
2017-11-09T23:02:48.327Z,6.00
2017-11-09T23:05:16.878Z,6.00
2017-11-09T23:07:45.360Z,6.10
2017-11-09T23:10:13.675Z,6.10
2017-11-09T23:12:41.974Z,6.10
2017-11-09T23:15:10.471Z,6.10
2017-11-09T23:17:40.096Z,6.20
2017-11-09T23:20:08.622Z,6.20
2017-11-09T23:22:38.246Z,6.30
2017-11-09T23:25:06.787Z,6.20
2017-11-09T23:27:35.265Z,6.20
2017-11-09T23:30:03.395Z,6.30
2017-11-09T23:32:31.909Z,6.30
2017-11-09T23:35:01.204Z,6.30
2017-11-09T23:37:29.721Z,6.30
2017-11-09T23:39:58.226Z,6.30
2017-11-09T23:42:27.503Z,6.30
2017-11-09T23:47:25.468Z,6.40
2017-11-09T23:49:53.996Z,6.30
2017-11-09T23:52:33.530Z,6.30
2017-11-09T23:57:32.495Z,6.20
